sensor_id;sensor_type;location;lat;lon;timestamp;pressure;altitude;pressure_sealevel;temperature;humidity
39309;BME280;26019;47.510;19.122;2024-02-21T00:03:42;101014.41;;;7.68;100.00
39309;BME280;26019;47.510;19.122;2024-02-21T00:13:44;101009.31;;;7.71;100.00
39309;BME280;26019;47.510;19.122;2024-02-21T00:23:46;101001.59;;;7.69;100.00
39309;BME280;26019;47.510;19.122;2024-02-21T00:33:47;100994.09;;;7.83;100.00
39309;BME280;26019;47.510;19.122;2024-02-21T00:43:49;100983.53;;;7.68;100.00
39309;BME280;26019;47.510;19.122;2024-02-21T00:53:51;100974.75;;;7.55;100.00
39309;BME280;26019;47.510;19.122;2024-02-21T01:03:53;100977.50;;;7.66;100.00
39309;BME280;26019;47.510;19.122;2024-02-21T01:13:55;100984.34;;;7.63;100.00
39309;BME280;26019;47.510;19.122;2024-02-21T01:23:57;100983.53;;;7.68;100.00
39309;BME280;26019;47.510;19.122;2024-02-21T01:33:59;100976.66;;;7.67;100.00
39309;BME280;26019;47.510;19.122;2024-02-21T01:44:01;100964.94;;;7.32;100.00
39309;BME280;26019;47.510;19.122;2024-02-21T01:54:03;100969.19;;;7.28;100.00
39309;BME280;26019;47.510;19.122;2024-02-21T02:04:05;100965.47;;;7.14;100.00
39309;BME280;26019;47.510;19.122;2024-02-21T02:14:08;100953.41;;;7.08;100.00
39309;BME280;26019;47.510;19.122;2024-02-21T02:24:09;100960.16;;;7.03;100.00
39309;BME280;26019;47.510;19.122;2024-02-21T02:34:14;100969.47;;;6.98;100.00
39309;BME280;26019;47.510;19.122;2024-02-21T02:44:16;100959.94;;;6.92;100.00
39309;BME280;26019;47.510;19.122;2024-02-21T02:54:20;100945.19;;;6.83;100.00
39309;BME280;26019;47.510;19.122;2024-02-21T03:04:41;100945.19;;;6.83;100.00
39309;BME280;26019;47.510;19.122;2024-02-21T03:14:43;100948.53;;;6.78;100.00
39309;BME280;26019;47.510;19.122;2024-02-21T03:24:45;100945.94;;;6.76;100.00
39309;BME280;26019;47.510;19.122;2024-02-21T03:34:48;100949.28;;;6.73;100.00
39309;BME280;26019;47.510;19.122;2024-02-21T03:44:51;100943.19;;;6.68;100.00
39309;BME280;26019;47.510;19.122;2024-02-21T03:54:53;100941.78;;;6.41;100.00
39309;BME280;26019;47.510;19.122;2024-02-21T04:04:56;100953.41;;;6.24;100.00
39309;BME280;26019;47.510;19.122;2024-02-21T04:15:01;100960.84;;;6.11;100.00
39309;BME280;26019;47.510;19.122;2024-02-21T04:25:04;100956.50;;;6.09;100.00
39309;BME280;26019;47.510;19.122;2024-02-21T04:35:06;100955.47;;;6.02;100.00
39309;BME280;26019;47.510;19.122;2024-02-21T04:45:09;100945.91;;;5.95;100.00
39309;BME280;26019;47.510;19.122;2024-02-21T04:55:11;100939.88;;;5.94;100.00
39309;BME280;26019;47.510;19.122;2024-02-21T05:05:13;100952.00;;;6.00;100.00
39309;BME280;26019;47.510;19.122;2024-02-21T05:15:16;100950.59;;;5.76;100.00
39309;BME280;26019;47.510;19.122;2024-02-21T05:25:18;100941.16;;;5.75;100.00
39309;BME280;26019;47.510;19.122;2024-02-21T05:35:26;100944.53;;;5.73;100.00
39309;BME280;26019;47.510;19.122;2024-02-21T05:45:28;100954.06;;;5.80;100.00
39309;BME280;26019;47.510;19.122;2024-02-21T05:55:30;100969.28;;;5.72;100.00
39309;BME280;26019;47.510;19.122;2024-02-21T06:05:37;100974.47;;;5.74;100.00
39309;BME280;26019;47.510;19.122;2024-02-21T06:15:38;100973.75;;;5.79;100.00
39309;BME280;26019;47.510;19.122;2024-02-21T06:25:40;100978.56;;;6.01;100.00
39309;BME280;26019;47.510;19.122;2024-02-21T06:35:43;100977.06;;;6.10;100.00
39309;BME280;26019;47.510;19.122;2024-02-21T06:45:48;100987.03;;;6.36;100.00
39309;BME280;26019;47.510;19.122;2024-02-21T06:55:53;100986.78;;;6.65;100.00
39309;BME280;26019;47.510;19.122;2024-02-21T07:05:55;100994.13;;;6.88;100.00
39309;BME280;26019;47.510;19.122;2024-02-21T07:16:06;101005.97;;;7.26;100.00
39309;BME280;26019;47.510;19.122;2024-02-21T07:26:08;101009.81;;;7.48;100.00
39309;BME280;26019;47.510;19.122;2024-02-21T07:36:15;101022.09;;;7.65;100.00
39309;BME280;26019;47.510;19.122;2024-02-21T07:46:26;101029.41;;;7.90;100.00
39309;BME280;26019;47.510;19.122;2024-02-21T07:56:28;101037.50;;;8.15;100.00
39309;BME280;26019;47.510;19.122;2024-02-21T08:06:31;101028.66;;;8.55;100.00
39309;BME280;26019;47.510;19.122;2024-02-21T08:16:33;101019.78;;;9.00;100.00
39309;BME280;26019;47.510;19.122;2024-02-21T08:26:35;101009.06;;;13.09;69.20
39309;BME280;26019;47.510;19.122;2024-02-21T08:36:41;101008.97;;;15.08;54.08
39309;BME280;26019;47.510;19.122;2024-02-21T08:46:56;101005.53;;;17.45;45.36
39309;BME280;26019;47.510;19.122;2024-02-21T08:56:58;101001.38;;;20.11;39.43
39309;BME280;26019;47.510;19.122;2024-02-21T09:07:01;101004.22;;;16.40;44.64
39309;BME280;26019;47.510;19.122;2024-02-21T09:17:03;100997.03;;;19.84;37.90
39309;BME280;26019;47.510;19.122;2024-02-21T09:27:05;100985.59;;;19.60;37.45
39309;BME280;26019;47.510;19.122;2024-02-21T09:37:08;100994.50;;;14.89;46.13
39309;BME280;26019;47.510;19.122;2024-02-21T09:47:12;100998.41;;;15.76;45.05
39309;BME280;26019;47.510;19.122;2024-02-21T09:57:17;100990.25;;;18.33;38.24
39309;BME280;26019;47.510;19.122;2024-02-21T10:07:20;100981.78;;;22.21;32.53
39309;BME280;26019;47.510;19.122;2024-02-21T10:17:25;100971.19;;;22.82;29.58
39309;BME280;26019;47.510;19.122;2024-02-21T10:27:27;100952.03;;;25.33;27.19
39309;BME280;26019;47.510;19.122;2024-02-21T10:37:28;100937.44;;;23.08;30.56
39309;BME280;26019;47.510;19.122;2024-02-21T10:47:32;100938.28;;;16.76;39.48
39309;BME280;26019;47.510;19.122;2024-02-21T10:57:40;100926.25;;;15.81;43.59
39309;BME280;26019;47.510;19.122;2024-02-21T11:07:42;100906.28;;;14.67;46.00
39309;BME280;26019;47.510;19.122;2024-02-21T11:17:53;100888.22;;;15.17;44.68
39309;BME280;26019;47.510;19.122;2024-02-21T11:28:03;100871.09;;;19.61;38.01
39309;BME280;26019;47.510;19.122;2024-02-21T11:38:10;100875.22;;;15.19;45.20
39309;BME280;26019;47.510;19.122;2024-02-21T11:48:15;100864.28;;;15.97;44.56
39309;BME280;26019;47.510;19.122;2024-02-21T11:58:18;100844.47;;;17.09;41.45
39309;BME280;26019;47.510;19.122;2024-02-21T12:08:20;100840.84;;;16.38;39.84
39309;BME280;26019;47.510;19.122;2024-02-21T12:18:22;100833.59;;;13.91;47.17
39309;BME280;26019;47.510;19.122;2024-02-21T12:28:24;100828.50;;;13.80;48.28
39309;BME280;26019;47.510;19.122;2024-02-21T12:38:26;100830.53;;;13.54;50.14
39309;BME280;26019;47.510;19.122;2024-02-21T12:48:29;100808.41;;;13.10;50.34
39309;BME280;26019;47.510;19.122;2024-02-21T12:58:38;100798.94;;;13.04;49.86
39309;BME280;26019;47.510;19.122;2024-02-21T13:08:41;100781.06;;;12.68;49.78
39309;BME280;26019;47.510;19.122;2024-02-21T13:18:42;100771.00;;;12.19;50.08
39309;BME280;26019;47.510;19.122;2024-02-21T13:28:45;100767.25;;;12.66;49.20
39309;BME280;26019;47.510;19.122;2024-02-21T13:38:47;100743.97;;;18.71;35.32
39309;BME280;26019;47.510;19.122;2024-02-21T13:48:54;100728.53;;;21.19;31.57
39309;BME280;26019;47.510;19.122;2024-02-21T13:59:03;100726.47;;;25.02;25.17
39309;BME280;26019;47.510;19.122;2024-02-21T14:09:07;100732.28;;;17.69;32.79
39309;BME280;26019;47.510;19.122;2024-02-21T14:19:14;100731.63;;;15.83;36.99
39309;BME280;26019;47.510;19.122;2024-02-21T14:29:18;100728.63;;;14.04;40.82
39309;BME280;26019;47.510;19.122;2024-02-21T14:39:20;100720.59;;;15.26;38.75
39309;BME280;26019;47.510;19.122;2024-02-21T14:49:23;100723.78;;;14.40;40.44
39309;BME280;26019;47.510;19.122;2024-02-21T14:59:27;100712.56;;;16.22;38.46
39309;BME280;26019;47.510;19.122;2024-02-21T15:09:36;100700.91;;;14.03;41.34
39309;BME280;26019;47.510;19.122;2024-02-21T15:19:38;100693.63;;;14.27;41.47
39309;BME280;26019;47.510;19.122;2024-02-21T15:29:46;100695.97;;;13.11;42.85
39309;BME280;26019;47.510;19.122;2024-02-21T15:39:48;100691.31;;;12.50;44.15
39309;BME280;26019;47.510;19.122;2024-02-21T15:49:52;100688.00;;;12.31;45.45
39309;BME280;26019;47.510;19.122;2024-02-21T15:59:55;100673.56;;;11.91;45.81
39309;BME280;26019;47.510;19.122;2024-02-21T16:09:58;100677.06;;;11.83;46.52
39309;BME280;26019;47.510;19.122;2024-02-21T16:20:02;100671.97;;;11.62;47.42
39309;BME280;26019;47.510;19.122;2024-02-21T16:30:06;100670.38;;;11.40;48.81
39309;BME280;26019;47.510;19.122;2024-02-21T16:40:11;100673.88;;;11.25;49.01
39309;BME280;26019;47.510;19.122;2024-02-21T16:50:14;100683.38;;;11.07;49.94
39309;BME280;26019;47.510;19.122;2024-02-21T17:00:19;100686.84;;;11.00;50.40
39309;BME280;26019;47.510;19.122;2024-02-21T17:10:23;100691.19;;;10.88;50.85
39309;BME280;26019;47.510;19.122;2024-02-21T17:20:27;100689.47;;;10.87;51.01
39309;BME280;26019;47.510;19.122;2024-02-21T17:30:30;100671.38;;;10.69;52.57
39309;BME280;26019;47.510;19.122;2024-02-21T17:40:33;100664.47;;;10.65;53.72
39309;BME280;26019;47.510;19.122;2024-02-21T17:50:36;100663.63;;;10.47;55.19
39309;BME280;26019;47.510;19.122;2024-02-21T18:00:40;100654.97;;;10.29;55.80
39309;BME280;26019;47.510;19.122;2024-02-21T18:10:47;100642.91;;;10.24;56.66
39309;BME280;26019;47.510;19.122;2024-02-21T18:20:50;100628.28;;;10.12;58.52
39309;BME280;26019;47.510;19.122;2024-02-21T18:30:59;100636.00;;;10.13;59.38
39309;BME280;26019;47.510;19.122;2024-02-21T18:41:01;100631.69;;;10.01;61.16
39309;BME280;26019;47.510;19.122;2024-02-21T18:51:11;100629.94;;;9.80;63.47
39309;BME280;26019;47.510;19.122;2024-02-21T19:01:13;100628.22;;;9.71;64.19
39309;BME280;26019;47.510;19.122;2024-02-21T19:11:17;100612.72;;;9.59;66.40
39309;BME280;26019;47.510;19.122;2024-02-21T19:21:19;100598.91;;;9.40;67.96
39309;BME280;26019;47.510;19.122;2024-02-21T19:31:22;100586.84;;;9.36;68.34
39309;BME280;26019;47.510;19.122;2024-02-21T19:41:26;100585.94;;;9.26;71.62
39309;BME280;26019;47.510;19.122;2024-02-21T19:51:28;100587.59;;;9.11;74.80
39309;BME280;26019;47.510;19.122;2024-02-21T20:01:38;100570.31;;;8.93;77.64
39309;BME280;26019;47.510;19.122;2024-02-21T20:11:47;100557.44;;;8.92;77.98
39309;BME280;26019;47.510;19.122;2024-02-21T20:21:51;100556.56;;;8.91;79.03
39309;BME280;26019;47.510;19.122;2024-02-21T20:31:53;100541.09;;;8.84;79.80
39309;BME280;26019;47.510;19.122;2024-02-21T20:41:59;100540.16;;;8.72;80.86
39309;BME280;26019;47.510;19.122;2024-02-21T20:52:02;100532.34;;;8.58;81.17
39309;BME280;26019;47.510;19.122;2024-02-21T21:02:05;100539.13;;;8.44;83.84
39309;BME280;26019;47.510;19.122;2024-02-21T21:12:08;100540.91;;;8.49;84.85
39309;BME280;26019;47.510;19.122;2024-02-21T21:22:11;100538.22;;;8.40;86.80
39309;BME280;26019;47.510;19.122;2024-02-21T21:32:13;100527.94;;;8.43;87.97
39309;BME280;26019;47.510;19.122;2024-02-21T21:42:16;100505.53;;;8.28;90.38
39309;BME280;26019;47.510;19.122;2024-02-21T21:52:18;100508.84;;;8.15;91.63
39309;BME280;26019;47.510;19.122;2024-02-21T22:02:20;100518.25;;;8.06;93.88
39309;BME280;26019;47.510;19.122;2024-02-21T22:12:27;100517.31;;;7.97;95.89
39309;BME280;26019;47.510;19.122;2024-02-21T22:22:29;100512.03;;;7.78;98.05
39309;BME280;26019;47.510;19.122;2024-02-21T22:32:33;100503.41;;;7.73;99.27
39309;BME280;26019;47.510;19.122;2024-02-21T22:42:35;100495.56;;;7.59;100.00
39309;BME280;26019;47.510;19.122;2024-02-21T22:52:37;100477.47;;;7.48;100.00
39309;BME280;26019;47.510;19.122;2024-02-21T23:02:39;100455.97;;;7.43;100.00
39309;BME280;26019;47.510;19.122;2024-02-21T23:12:42;100446.22;;;7.08;100.00
39309;BME280;26019;47.510;19.122;2024-02-21T23:22:44;100434.06;;;6.91;100.00
39309;BME280;26019;47.510;19.122;2024-02-21T23:32:46;100415.75;;;6.63;100.00
39309;BME280;26019;47.510;19.122;2024-02-21T23:42:48;100396.81;;;6.52;100.00
39309;BME280;26019;47.510;19.122;2024-02-21T23:52:50;100384.72;;;6.45;100.00
